Time;durP1;ratioP1;P1;durP2;ratioP2;P2;SDS_P1;SDS_P2;PMS_P1;PMS_P2;Temp;Humidity;BMP_temperature;BMP_pressure;BME280_temperature;BME280_humidity;BME280_pressure;Samples;Min_cycle;Max_cycle;Signal;HPM_P1;HPM_P2
2023/06/02 05:00:28;;;;;;;7.83;7.17;;;18.10;97.20;;;;;;1714264;28;20190;-69
2023/06/02 05:01:19;;;;;;;8.75;7.13;;;18.10;97.20;;;;;;1714236;28;20289;-69
2023/06/02 05:02:11;;;;;;;8.13;7.33;;;18.20;97.20;;;;;;1714260;28;20268;-69
2023/06/02 05:03:02;;;;;;;8.25;6.80;;;18.20;97.20;;;;;;1714144;28;20453;-69
2023/06/02 05:03:54;;;;;;;7.47;6.77;;;18.20;97.20;;;;;;1714096;28;20721;-68
2023/06/02 05:04:45;;;;;;;8.80;7.32;;;18.20;97.20;;;;;;1714126;28;20829;-68
2023/06/02 05:05:37;;;;;;;7.10;6.40;;;18.20;97.20;;;;;;1714050;28;20233;-69
2023/06/02 05:06:28;;;;;;;9.88;7.07;;;18.20;97.20;;;;;;1714004;28;20692;-69
2023/06/02 05:07:20;;;;;;;10.27;7.45;;;18.20;97.20;;;;;;1713796;28;20639;-69
2023/06/02 05:08:11;;;;;;;8.75;7.00;;;18.20;97.20;;;;;;1713975;28;20201;-69
2023/06/02 05:09:03;;;;;;;9.53;7.40;;;18.20;97.20;;;;;;1714129;28;20212;-69
2023/06/02 05:09:53;;;;;;;7.85;7.15;;;18.20;97.20;;;;;;1713707;28;20210;-70
2023/06/02 05:10:45;;;;;;;8.43;7.50;;;18.20;97.20;;;;;;1713645;28;20222;-69
2023/06/02 05:11:36;;;;;;;9.07;7.82;;;18.20;97.20;;;;;;1714237;28;20206;-70
2023/06/02 05:12:27;;;;;;;7.60;6.77;;;18.20;97.20;;;;;;1713789;28;20193;-69
2023/06/02 05:13:18;;;;;;;8.00;7.20;;;18.20;97.20;;;;;;1714040;28;20229;-69
2023/06/02 05:14:10;;;;;;;10.63;7.20;;;18.20;97.20;;;;;;1714123;28;20194;-69
2023/06/02 05:15:01;;;;;;;8.18;7.30;;;18.30;97.20;;;;;;1713979;28;20445;-69
2023/06/02 05:15:55;;;;;;;10.83;7.20;;;18.30;97.20;;;;;;1714049;28;20198;-69
2023/06/02 05:16:46;;;;;;;8.10;7.30;;;18.30;97.20;;;;;;1713967;28;20206;-70
2023/06/02 05:17:37;;;;;;;7.40;6.70;;;18.30;97.20;;;;;;1713767;28;20201;-70
2023/06/02 05:18:28;;;;;;;8.48;7.13;;;18.30;97.20;;;;;;1713889;28;20244;-69
2023/06/02 05:19:20;;;;;;;9.68;6.93;;;18.30;97.20;;;;;;1714091;28;20248;-69
2023/06/02 05:20:11;;;;;;;7.03;6.35;;;18.30;97.20;;;;;;1713511;28;20201;-69
2023/06/02 05:21:03;;;;;;;7.93;7.20;;;18.30;97.20;;;;;;1713823;28;20201;-69
2023/06/02 05:21:53;;;;;;;9.35;7.35;;;18.30;97.20;;;;;;1713666;28;20464;-70
2023/06/02 05:22:45;;;;;;;8.70;6.57;;;18.30;97.20;;;;;;1713687;28;20233;-70
2023/06/02 05:23:36;;;;;;;7.25;6.25;;;18.30;97.20;;;;;;1713508;28;20210;-69
2023/06/02 05:24:28;;;;;;;9.93;7.60;;;18.30;97.20;;;;;;1713916;28;20282;-69
2023/06/02 05:25:19;;;;;;;9.13;8.15;;;18.30;97.20;;;;;;1713919;28;20280;-69
2023/06/02 05:26:11;;;;;;;9.33;7.53;;;18.30;97.20;;;;;;1713926;28;20201;-69
2023/06/02 05:27:01;;;;;;;9.52;7.40;;;18.40;97.20;;;;;;1713646;28;20217;-69
2023/06/02 05:27:53;;;;;;;9.10;7.80;;;18.40;97.20;;;;;;1713914;28;20284;-69
2023/06/02 05:28:44;;;;;;;9.27;7.72;;;18.40;97.20;;;;;;1713875;28;20201;-70
2023/06/02 05:29:35;;;;;;;8.80;8.00;;;18.40;97.20;;;;;;1713927;28;20208;-70
2023/06/02 05:30:26;;;;;;;8.68;7.63;;;18.40;97.20;;;;;;1713484;28;20692;-69
2023/06/02 05:31:19;;;;;;;8.90;7.67;;;18.40;97.20;;;;;;1713811;28;20684;-69
2023/06/02 05:32:11;;;;;;;8.82;7.95;;;18.40;97.20;;;;;;1713670;28;20634;-69
2023/06/02 05:33:02;;;;;;;8.05;6.80;;;18.40;97.20;;;;;;1713997;28;20582;-69
2023/06/02 05:33:53;;;;;;;7.63;6.88;;;18.40;97.20;;;;;;1713924;28;20204;-69
2023/06/02 05:34:45;;;;;;;8.03;7.23;;;18.50;97.20;;;;;;1713888;28;20212;-70
2023/06/02 05:35:35;;;;;;;8.32;7.53;;;18.50;97.20;;;;;;1714038;28;20202;-69
2023/06/02 05:36:27;;;;;;;8.53;7.70;;;18.50;97.20;;;;;;1713918;28;20216;-69
2023/06/02 05:37:18;;;;;;;8.00;7.00;;;18.50;97.20;;;;;;1713643;28;20237;-70
2023/06/02 05:38:10;;;;;;;10.35;8.32;;;18.50;97.20;;;;;;1713888;28;20201;-68
2023/06/02 05:39:01;;;;;;;8.30;7.50;;;18.50;97.20;;;;;;1713837;28;20209;-68
2023/06/02 05:39:53;;;;;;;8.77;7.87;;;18.50;97.20;;;;;;1714054;28;20205;-69
2023/06/02 05:40:44;;;;;;;10.10;7.38;;;18.50;97.20;;;;;;1713399;28;20230;-70
2023/06/02 05:41:36;;;;;;;8.00;7.30;;;18.60;97.20;;;;;;1713892;28;20213;-70
2023/06/02 05:42:26;;;;;;;8.55;7.30;;;18.50;97.20;;;;;;1713817;28;20213;-69
2023/06/02 05:43:18;;;;;;;9.20;7.90;;;18.60;97.20;;;;;;1713952;28;20208;-69
2023/06/02 05:44:09;;;;;;;9.32;7.57;;;18.60;97.20;;;;;;1713810;28;20485;-69
2023/06/02 05:45:02;;;;;;;8.73;7.83;;;18.60;97.20;;;;;;1713967;28;20415;-69
2023/06/02 05:45:53;;;;;;;9.45;7.95;;;18.60;97.20;;;;;;1713807;28;20202;-69
2023/06/02 05:46:46;;;;;;;8.23;7.43;;;18.60;97.20;;;;;;1720540;28;20548;-69
2023/06/02 05:47:36;;;;;;;8.98;7.68;;;18.60;97.20;;;;;;1720053;28;20205;-70
2023/06/02 05:48:28;;;;;;;8.97;7.40;;;18.60;97.20;;;;;;1720382;28;20201;-70
2023/06/02 05:49:19;;;;;;;8.95;7.40;;;18.60;97.20;;;;;;1720348;28;20216;-70
2023/06/02 05:50:11;;;;;;;10.87;8.30;;;18.60;97.20;;;;;;1719274;28;20207;-69
2023/06/02 05:51:02;;;;;;;9.27;7.25;;;18.60;97.20;;;;;;1713847;28;20264;-69
2023/06/02 05:51:54;;;;;;;8.37;7.57;;;18.70;97.20;;;;;;1713753;28;20264;-69
2023/06/02 05:52:45;;;;;;;7.97;7.25;;;18.70;97.20;;;;;;1713754;28;20464;-69
2023/06/02 05:53:36;;;;;;;10.83;7.47;;;18.70;97.20;;;;;;1713785;28;20206;-69
2023/06/02 05:54:27;;;;;;;13.95;8.20;;;18.70;97.20;;;;;;1713731;28;20693;-69
2023/06/02 05:55:19;;;;;;;11.93;8.10;;;18.80;97.20;;;;;;1713839;28;20561;-69
2023/06/02 05:56:09;;;;;;;9.63;7.95;;;18.80;97.20;;;;;;1713812;28;20198;-69
2023/06/02 05:57:01;;;;;;;9.53;8.00;;;18.80;97.20;;;;;;1713512;28;20208;-69
2023/06/02 05:57:52;;;;;;;10.57;7.88;;;18.80;97.20;;;;;;1713759;28;20206;-69
2023/06/02 05:58:45;;;;;;;8.00;7.03;;;18.80;97.20;;;;;;1713728;28;20194;-68
2023/06/02 05:59:36;;;;;;;8.98;8.07;;;18.90;97.20;;;;;;1713617;28;20201;-69
2023/06/02 06:00:28;;;;;;;9.73;7.43;;;18.90;97.20;;;;;;1715159;28;20222;-69
2023/06/02 06:01:19;;;;;;;9.15;8.25;;;18.90;97.20;;;;;;1713519;28;20210;-69
2023/06/02 06:02:12;;;;;;;11.93;7.80;;;18.90;97.20;;;;;;1713551;28;20201;-69
2023/06/02 06:03:02;;;;;;;14.10;7.93;;;18.90;97.20;;;;;;1713698;28;20213;-69
2023/06/02 06:03:54;;;;;;;15.43;8.53;;;18.90;97.20;;;;;;1713682;28;20208;-69
2023/06/02 06:04:45;;;;;;;12.48;8.15;;;18.90;97.20;;;;;;1713688;28;20214;-70
2023/06/02 06:05:36;;;;;;;12.43;7.90;;;18.90;97.20;;;;;;1713714;28;20202;-69
2023/06/02 06:06:27;;;;;;;9.90;8.40;;;18.90;97.20;;;;;;1713717;28;20209;-69
2023/06/02 06:07:19;;;;;;;12.23;8.40;;;18.90;97.20;;;;;;1713418;28;20257;-69
2023/06/02 06:08:10;;;;;;;8.57;7.60;;;18.90;97.20;;;;;;1713613;28;20213;-70
2023/06/02 06:09:01;;;;;;;11.53;7.63;;;18.90;97.20;;;;;;1713799;28;20464;-68
2023/06/02 06:09:52;;;;;;;9.07;7.93;;;19.00;97.20;;;;;;1713808;28;20206;-69
2023/06/02 06:10:44;;;;;;;9.50;8.10;;;19.00;97.20;;;;;;1713715;28;20217;-69
2023/06/02 06:11:35;;;;;;;8.70;7.80;;;19.00;97.20;;;;;;1713644;28;20213;-68
2023/06/02 06:12:26;;;;;;;13.05;8.30;;;19.00;97.20;;;;;;1713369;28;20225;-70
2023/06/02 06:13:17;;;;;;;9.68;7.78;;;19.10;97.20;;;;;;1713698;28;20206;-69
2023/06/02 06:14:09;;;;;;;10.80;8.20;;;19.10;97.20;;;;;;1713713;28;20193;-68
2023/06/02 06:15:00;;;;;;;8.80;7.90;;;19.10;97.20;;;;;;1713611;28;20206;-69
2023/06/02 06:15:52;;;;;;;10.70;8.02;;;19.10;97.20;;;;;;1713882;28;20710;-69
2023/06/02 06:16:43;;;;;;;9.38;8.13;;;19.20;97.20;;;;;;1713592;28;20206;-69
2023/06/02 06:17:48;;;;;;;11.13;8.60;;;19.20;97.20;;;;;;1713498;28;20198;-69
2023/06/02 06:18:38;;;;;;;12.90;7.85;;;19.20;97.20;;;;;;1713640;28;20889;-70
2023/06/02 06:19:30;;;;;;;12.23;8.30;;;19.20;97.20;;;;;;1713719;28;20589;-70
2023/06/02 06:20:21;;;;;;;9.95;8.32;;;19.20;97.20;;;;;;1713597;28;20225;-70
2023/06/02 06:21:13;;;;;;;8.23;7.43;;;19.20;97.20;;;;;;1713677;28;20202;-69
2023/06/02 06:22:04;;;;;;;13.25;8.25;;;19.30;97.20;;;;;;1713619;28;20445;-70
2023/06/02 06:22:56;;;;;;;9.77;7.85;;;19.30;97.20;;;;;;1713666;28;20466;-70
2023/06/02 06:23:46;;;;;;;13.43;8.65;;;19.30;97.20;;;;;;1713565;28;20205;-68
2023/06/02 06:24:38;;;;;;;16.67;8.40;;;19.30;97.20;;;;;;1713725;28;20214;-69
2023/06/02 06:25:29;;;;;;;11.75;8.23;;;19.30;97.20;;;;;;1713696;28;20202;-69
2023/06/02 06:26:21;;;;;;;11.30;8.20;;;19.40;97.20;;;;;;1713347;28;20193;-70
2023/06/02 06:27:12;;;;;;;12.02;8.20;;;19.40;97.20;;;;;;1713471;28;20205;-69
2023/06/02 06:28:03;;;;;;;12.73;8.55;;;19.40;97.20;;;;;;1713586;28;20228;-69
2023/06/02 06:28:54;;;;;;;11.55;7.90;;;19.40;97.20;;;;;;1713677;28;20225;-68
2023/06/02 06:29:46;;;;;;;12.13;8.33;;;19.40;97.20;;;;;;1713639;28;20209;-69
2023/06/02 06:30:39;;;;;;;10.20;8.15;;;19.40;97.20;;;;;;1713548;28;20245;-69
2023/06/02 06:31:32;;;;;;;11.80;8.02;;;19.50;97.20;;;;;;1713740;28;20233;-69
2023/06/02 06:32:22;;;;;;;14.60;8.13;;;19.50;97.20;;;;;;1713682;28;20214;-69
2023/06/02 06:33:15;;;;;;;11.70;7.90;;;19.50;97.20;;;;;;1713799;28;20204;-68
2023/06/02 06:34:08;;;;;;;14.55;8.50;;;19.60;97.20;;;;;;1713630;28;20202;-69
2023/06/02 06:35:00;;;;;;;14.43;8.50;;;19.60;97.20;;;;;;1714725;28;20242;-69
2023/06/02 06:35:50;;;;;;;10.38;8.73;;;19.70;97.20;;;;;;1714889;28;20202;-68
2023/06/02 06:36:42;;;;;;;9.10;8.20;;;19.80;97.20;;;;;;1714869;28;20658;-68
2023/06/02 06:37:33;;;;;;;13.23;8.93;;;19.80;97.20;;;;;;1714686;28;20205;-71
2023/06/02 06:38:25;;;;;;;12.18;8.57;;;19.90;97.20;;;;;;1714857;28;20198;-71
2023/06/02 06:39:15;;;;;;;10.52;8.48;;;19.90;97.20;;;;;;1714907;28;20233;-71
2023/06/02 06:40:08;;;;;;;10.40;8.30;;;20.00;97.20;;;;;;1714950;28;20657;-71
2023/06/02 06:40:59;;;;;;;13.05;7.72;;;20.00;97.20;;;;;;1714956;28;20718;-71
2023/06/02 06:41:51;;;;;;;19.53;9.60;;;20.00;97.20;;;;;;1714803;28;20691;-70
2023/06/02 06:42:41;;;;;;;15.05;8.55;;;20.10;97.20;;;;;;1714965;28;20202;-70
2023/06/02 06:43:33;;;;;;;26.87;8.50;;;20.10;97.20;;;;;;1714592;28;20190;-71
2023/06/02 06:44:24;;;;;;;19.90;9.18;;;20.20;97.20;;;;;;1714677;28;20234;-71
2023/06/02 06:45:16;;;;;;;21.80;9.20;;;20.20;97.20;;;;;;1714939;28;20226;-70
2023/06/02 06:46:06;;;;;;;25.33;10.35;;;20.30;97.20;;;;;;1714862;28;20225;-71
2023/06/02 06:46:59;;;;;;;16.83;8.90;;;20.30;97.20;;;;;;1714534;28;20202;-70
2023/06/02 06:47:50;;;;;;;14.68;8.35;;;20.30;97.20;;;;;;1714702;28;20202;-70
2023/06/02 06:48:43;;;;;;;14.40;8.53;;;20.40;97.20;;;;;;1714741;28;20210;-71
2023/06/02 06:49:33;;;;;;;15.52;9.20;;;20.40;97.20;;;;;;1714272;28;20210;-70
2023/06/02 06:50:25;;;;;;;12.50;7.40;;;20.50;97.20;;;;;;1714407;28;20201;-70
2023/06/02 06:51:16;;;;;;;10.73;8.38;;;20.50;97.20;;;;;;1714910;28;20688;-70
2023/06/02 06:52:08;;;;;;;11.33;7.53;;;20.50;97.20;;;;;;1714754;28;20569;-69
2023/06/02 06:52:59;;;;;;;18.02;8.27;;;20.60;97.20;;;;;;1714850;28;20547;-69
2023/06/02 06:53:50;;;;;;;18.90;9.07;;;20.60;97.20;;;;;;1714946;28;20198;-68
2023/06/02 06:54:41;;;;;;;22.05;9.25;;;20.70;97.20;;;;;;1714902;28;20212;-68
2023/06/02 06:55:33;;;;;;;15.53;8.83;;;20.70;97.20;;;;;;1714831;28;20208;-69
2023/06/02 06:56:23;;;;;;;14.40;8.65;;;20.80;97.20;;;;;;1714725;28;20559;-69
2023/06/02 06:57:17;;;;;;;16.67;8.90;;;20.80;97.20;;;;;;1714587;28;20247;-68
2023/06/02 06:58:08;;;;;;;16.58;8.40;;;20.80;97.20;;;;;;1714730;28;20713;-69
2023/06/02 06:59:00;;;;;;;16.13;8.97;;;20.80;97.20;;;;;;1714839;28;20657;-69
2023/06/02 06:59:50;;;;;;;22.70;8.82;;;20.90;97.20;;;;;;1714494;28;20197;-69
2023/06/02 07:00:42;;;;;;;13.67;8.00;;;20.90;97.20;;;;;;1714566;28;20222;-69
2023/06/02 07:01:33;;;;;;;15.95;8.23;;;21.00;97.20;;;;;;1714743;28;20465;-69
2023/06/02 07:02:24;;;;;;;14.77;7.83;;;21.00;97.20;;;;;;1714849;28;20204;-69
2023/06/02 07:03:15;;;;;;;30.33;9.13;;;21.00;97.20;;;;;;1714838;28;20286;-69
2023/06/02 07:04:09;;;;;;;20.60;9.17;;;21.10;97.20;;;;;;1714757;28;20285;-69
2023/06/02 07:04:59;;;;;;;16.90;8.48;;;21.10;97.20;;;;;;1714810;28;20453;-69
2023/06/02 07:05:51;;;;;;;15.73;8.33;;;21.10;97.20;;;;;;1714754;28;20202;-69
2023/06/02 07:06:42;;;;;;;13.73;8.18;;;21.10;97.20;;;;;;1714739;28;20206;-68
2023/06/02 07:07:34;;;;;;;16.03;8.03;;;21.20;97.20;;;;;;1714474;28;20688;-70
2023/06/02 07:08:24;;;;;;;12.88;8.45;;;21.20;97.20;;;;;;1714611;28;20202;-69
2023/06/02 07:09:16;;;;;;;15.33;9.23;;;21.20;97.20;;;;;;1714866;28;20300;-69
2023/06/02 07:10:07;;;;;;;10.13;7.45;;;21.30;97.20;;;;;;1714705;28;20210;-70
2023/06/02 07:10:59;;;;;;;12.02;7.85;;;21.30;97.20;;;;;;1714647;28;20776;-69
2023/06/02 07:11:50;;;;;;;11.52;7.70;;;21.30;97.20;;;;;;1714628;28;20210;-68
2023/06/02 07:12:42;;;;;;;13.53;8.60;;;21.40;97.20;;;;;;1714887;28;20210;-69
2023/06/02 07:13:32;;;;;;;11.85;8.45;;;21.40;97.20;;;;;;1714676;28;20213;-68
2023/06/02 07:14:25;;;;;;;9.57;8.67;;;21.40;97.20;;;;;;1714871;28;20206;-69
2023/06/02 07:15:15;;;;;;;24.10;8.95;;;21.50;97.20;;;;;;1714877;28;20213;-70
2023/06/02 07:16:07;;;;;;;14.67;9.27;;;21.50;97.20;;;;;;1714436;28;20714;-69
2023/06/02 07:16:59;;;;;;;18.40;9.10;;;21.60;97.20;;;;;;1714401;28;20487;-68
2023/06/02 07:17:50;;;;;;;16.20;9.23;;;21.60;97.20;;;;;;1714333;28;20202;-69
2023/06/02 07:18:41;;;;;;;14.30;9.10;;;21.60;97.20;;;;;;1714581;28;20222;-69
2023/06/02 07:19:34;;;;;;;13.93;8.50;;;21.60;97.20;;;;;;1714793;28;20214;-69
2023/06/02 07:20:25;;;;;;;11.48;7.70;;;21.60;97.20;;;;;;1714624;28;20202;-70
2023/06/02 07:21:17;;;;;;;9.50;8.43;;;21.70;97.20;;;;;;1714914;28;20693;-69
2023/06/02 07:22:09;;;;;;;13.55;8.27;;;21.70;97.20;;;;;;1714561;28;20445;-69
2023/06/02 07:23:01;;;;;;;17.58;8.68;;;21.70;97.20;;;;;;1714739;28;20289;-69
2023/06/02 07:23:52;;;;;;;38.78;10.65;;;21.70;97.20;;;;;;1714603;28;20255;-69
2023/06/02 07:24:44;;;;;;;30.23;10.40;;;21.80;97.20;;;;;;1714583;28;20284;-69
2023/06/02 07:25:36;;;;;;;24.63;9.57;;;21.80;97.20;;;;;;1714742;28;20236;-69
2023/06/02 07:26:28;;;;;;;30.90;9.10;;;21.90;97.20;;;;;;1714753;28;20267;-69
2023/06/02 07:27:19;;;;;;;33.25;10.90;;;21.90;97.20;;;;;;1714331;28;20807;-69
2023/06/02 07:28:10;;;;;;;31.73;10.00;;;22.00;97.20;;;;;;1714630;28;20568;-69
2023/06/02 07:29:01;;;;;;;15.05;8.10;;;22.00;97.20;;;;;;1714673;28;20202;-69
2023/06/02 07:29:53;;;;;;;12.83;8.37;;;22.00;97.20;;;;;;1714765;28;20198;-69
2023/06/02 07:30:47;;;;;;;18.38;8.98;;;22.00;97.20;;;;;;1714444;28;20740;-70
2023/06/02 07:31:39;;;;;;;15.13;7.85;;;22.10;97.20;;;;;;1714594;28;20209;-69
2023/06/02 07:32:30;;;;;;;12.00;7.83;;;22.10;97.20;;;;;;1714154;28;20205;-72
2023/06/02 07:33:22;;;;;;;30.13;9.33;;;22.20;97.20;;;;;;1714579;28;20443;-68
2023/06/02 07:34:13;;;;;;;34.33;11.75;;;22.20;97.20;;;;;;1714785;28;20206;-69
2023/06/02 07:35:07;;;;;;;20.07;9.20;;;22.20;97.20;;;;;;1714544;28;20229;-70
2023/06/02 07:35:58;;;;;;;11.88;8.10;;;22.30;97.20;;;;;;1714546;28;20209;-70
2023/06/02 07:36:49;;;;;;;10.00;8.73;;;22.30;97.20;;;;;;1714183;28;20676;-70
2023/06/02 07:37:40;;;;;;;11.45;8.10;;;22.30;97.20;;;;;;1714519;28;20201;-69
2023/06/02 07:38:32;;;;;;;12.17;8.00;;;22.40;97.20;;;;;;1714461;28;20197;-69
2023/06/02 07:39:23;;;;;;;13.55;7.50;;;22.40;97.20;;;;;;1714497;28;20198;-69
2023/06/02 07:40:14;;;;;;;20.10;9.00;;;22.40;97.20;;;;;;1714636;28;20190;-69
2023/06/02 07:41:05;;;;;;;34.13;10.18;;;22.50;97.20;;;;;;1714458;28;20197;-69
2023/06/02 07:41:57;;;;;;;51.37;12.03;;;22.50;97.20;;;;;;1714558;28;20206;-69
2023/06/02 07:42:48;;;;;;;54.40;13.32;;;22.50;97.20;;;;;;1714465;28;20449;-69
2023/06/02 07:43:39;;;;;;;20.80;8.53;;;22.50;97.20;;;;;;1714660;28;20206;-68
2023/06/02 07:44:30;;;;;;;10.70;8.25;;;22.60;97.20;;;;;;1714367;28;20233;-70
2023/06/02 07:45:22;;;;;;;19.23;7.97;;;22.60;97.20;;;;;;1714305;28;20206;-70
2023/06/02 07:46:13;;;;;;;26.17;9.27;;;22.60;97.20;;;;;;1714475;28;20686;-70
2023/06/02 07:47:07;;;;;;;37.33;11.38;;;22.60;97.20;;;;;;1714114;28;20237;-69
2023/06/02 07:47:58;;;;;;;18.73;9.57;;;22.70;97.20;;;;;;1714439;28;20206;-69
2023/06/02 07:48:49;;;;;;;20.80;8.37;;;22.70;97.20;;;;;;1714078;28;20261;-70
2023/06/02 07:49:40;;;;;;;25.88;9.40;;;22.70;97.20;;;;;;1714458;28;20598;-70
2023/06/02 07:50:33;;;;;;;23.03;9.47;;;22.70;97.20;;;;;;1714397;28;20222;-68
2023/06/02 07:51:24;;;;;;;39.30;11.35;;;22.80;97.20;;;;;;1714574;28;20244;-70
2023/06/02 07:52:16;;;;;;;23.33;9.97;;;22.80;97.20;;;;;;1714504;28;20197;-69
2023/06/02 07:53:06;;;;;;;27.20;10.15;;;22.80;97.20;;;;;;1714451;28;20209;-69
2023/06/02 07:53:58;;;;;;;18.70;8.13;;;22.90;97.20;;;;;;1714638;28;20201;-69
2023/06/02 07:54:49;;;;;;;10.00;7.32;;;22.90;97.20;;;;;;1714421;28;20202;-69
2023/06/02 07:55:41;;;;;;;9.00;8.00;;;22.90;97.20;;;;;;1714690;28;20202;-70
2023/06/02 07:56:32;;;;;;;9.07;8.07;;;23.00;97.20;;;;;;1714506;28;20930;-69
2023/06/02 07:57:23;;;;;;;14.73;8.20;;;22.90;97.20;;;;;;1714326;28;20666;-70
2023/06/02 07:58:14;;;;;;;17.55;8.90;;;22.90;97.20;;;;;;1714552;28;20742;-69
2023/06/02 07:59:06;;;;;;;17.83;8.80;;;23.00;97.20;;;;;;1714557;28;20193;-70
2023/06/02 07:59:57;;;;;;;12.27;7.90;;;23.00;97.20;;;;;;1714508;28;20659;-69
2023/06/02 08:00:49;;;;;;;10.50;8.23;;;23.00;97.20;;;;;;1714299;28;20244;-70
2023/06/02 08:01:40;;;;;;;13.32;8.65;;;23.00;97.20;;;;;;1714418;28;20555;-69
2023/06/02 08:02:31;;;;;;;13.57;8.63;;;23.10;97.20;;;;;;1714450;28;20571;-70
2023/06/02 08:03:22;;;;;;;11.85;8.60;;;23.10;97.20;;;;;;1714534;28;20209;-69
2023/06/02 08:04:14;;;;;;;12.63;8.57;;;23.20;97.20;;;;;;1714477;28;20212;-69
2023/06/02 08:05:05;;;;;;;11.75;9.02;;;23.20;97.20;;;;;;1714155;28;21868;-70
2023/06/02 08:05:58;;;;;;;20.35;8.60;;;23.20;97.20;;;;;;1714482;28;20289;-69
2023/06/02 08:06:49;;;;;;;18.92;10.43;;;23.20;97.20;;;;;;1714095;28;20670;-69
2023/06/02 08:07:41;;;;;;;15.77;9.60;;;23.30;97.20;;;;;;1714347;28;20581;-70
2023/06/02 08:08:32;;;;;;;12.77;7.65;;;23.30;97.20;;;;;;1714300;28;20202;-70
2023/06/02 08:09:24;;;;;;;20.53;8.93;;;23.30;97.20;;;;;;1714443;28;20296;-69
2023/06/02 08:10:15;;;;;;;10.95;7.38;;;23.40;97.20;;;;;;1714278;28;20444;-70
2023/06/02 08:11:06;;;;;;;26.23;8.90;;;23.40;97.20;;;;;;1714429;28;20196;-69
2023/06/02 08:11:57;;;;;;;33.08;11.23;;;23.50;97.20;;;;;;1714334;28;20206;-70
2023/06/02 08:12:49;;;;;;;27.33;10.77;;;23.50;97.20;;;;;;1714343;28;20202;-70
2023/06/02 08:13:40;;;;;;;36.00;11.50;;;23.50;97.20;;;;;;1714365;28;20233;-70
2023/06/02 08:14:31;;;;;;;30.00;9.67;;;23.60;97.20;;;;;;1714452;28;20201;-69
2023/06/02 08:15:22;;;;;;;16.67;8.88;;;23.60;97.20;;;;;;1714369;28;20202;-70
2023/06/02 08:16:14;;;;;;;14.83;7.83;;;23.60;97.20;;;;;;1714264;28;20208;-70
2023/06/02 08:17:05;;;;;;;32.22;10.98;;;23.70;97.20;;;;;;1714070;28;20202;-70
2023/06/02 08:17:57;;;;;;;20.33;10.02;;;23.70;97.20;;;;;;1714277;28;20204;-70
2023/06/02 08:18:48;;;;;;;20.10;9.13;;;23.70;97.20;;;;;;1714187;28;20222;-70
2023/06/02 08:19:39;;;;;;;17.53;8.90;;;23.80;97.20;;;;;;1714302;28;20198;-70
2023/06/02 08:20:30;;;;;;;15.50;9.13;;;23.80;97.20;;;;;;1714182;28;20480;-70
2023/06/02 08:21:23;;;;;;;22.17;9.57;;;23.80;97.20;;;;;;1713758;28;20705;-70
2023/06/02 08:22:15;;;;;;;14.52;8.52;;;23.80;97.20;;;;;;1707585;29;20466;-70
2023/06/02 08:23:08;;;;;;;8.55;7.28;;;23.80;97.20;;;;;;1713563;28;20186;-70
2023/06/02 08:24:00;;;;;;;13.87;7.33;;;23.80;97.20;;;;;;1714007;28;20543;-70
2023/06/02 08:24:52;;;;;;;15.43;7.50;;;23.90;97.20;;;;;;1714176;28;20449;-70
2023/06/02 08:25:44;;;;;;;24.67;9.50;;;23.90;97.20;;;;;;1714406;28;20224;-70
2023/06/02 08:26:39;;;;;;;20.75;8.63;;;24.00;97.20;;;;;;1714237;28;20204;-70
2023/06/02 08:27:30;;;;;;;13.10;7.90;;;24.00;97.20;;;;;;1714094;28;20701;-70
2023/06/02 08:28:25;;;;;;;13.77;8.50;;;24.10;97.20;;;;;;1714076;28;20676;-70
2023/06/02 08:29:16;;;;;;;14.20;8.00;;;24.10;97.20;;;;;;1714295;28;20210;-71
2023/06/02 08:30:09;;;;;;;17.02;9.40;;;24.10;97.20;;;;;;1714058;28;20197;-70
2023/06/02 08:31:00;;;;;;;16.83;8.70;;;24.20;97.20;;;;;;1714084;28;20241;-70
2023/06/02 08:31:52;;;;;;;16.00;8.32;;;24.20;97.20;;;;;;1714153;28;20230;-70
2023/06/02 08:32:44;;;;;;;9.35;7.75;;;24.20;97.20;;;;;;1714094;28;20201;-70
2023/06/02 08:33:36;;;;;;;13.10;7.35;;;24.30;97.20;;;;;;1714256;28;20259;-70
2023/06/02 08:34:27;;;;;;;8.48;7.50;;;24.30;97.20;;;;;;1714228;28;20237;-71
2023/06/02 08:35:19;;;;;;;9.30;7.57;;;24.30;97.20;;;;;;1714273;28;20217;-70
2023/06/02 08:36:11;;;;;;;13.00;8.35;;;24.30;97.20;;;;;;1714245;28;20515;-71
2023/06/02 08:37:04;;;;;;;16.77;7.93;;;24.30;97.20;;;;;;1713911;28;20293;-71
2023/06/02 08:37:55;;;;;;;21.00;8.40;;;24.40;97.20;;;;;;1713861;28;20263;-70
2023/06/02 08:38:51;;;;;;;20.40;9.00;;;24.40;97.20;;;;;;1713916;28;20257;-70
2023/06/02 08:39:42;;;;;;;17.13;8.48;;;24.40;97.20;;;;;;1714265;28;20449;-71
2023/06/02 08:40:36;;;;;;;16.92;8.20;;;24.40;97.20;;;;;;1714133;28;20218;-69
2023/06/02 08:41:28;;;;;;;12.07;7.53;;;24.40;97.20;;;;;;1714138;28;20198;-69
2023/06/02 08:42:22;;;;;;;8.65;7.65;;;24.40;97.20;;;;;;1714202;28;20205;-70
2023/06/02 08:43:14;;;;;;;9.25;7.68;;;24.40;97.20;;;;;;1714226;28;20217;-70
2023/06/02 08:44:06;;;;;;;9.00;8.10;;;24.40;97.20;;;;;;1714311;28;20741;-70
2023/06/02 08:44:57;;;;;;;7.72;6.97;;;24.40;97.20;;;;;;1714035;28;20517;-70
2023/06/02 08:45:49;;;;;;;13.87;7.60;;;24.30;97.20;;;;;;1714031;28;20673;-70
2023/06/02 08:46:40;;;;;;;10.77;6.72;;;24.40;97.20;;;;;;1714171;28;20210;-70
2023/06/02 08:47:34;;;;;;;32.83;9.35;;;24.40;97.20;;;;;;1713721;28;20198;-70
2023/06/02 08:48:26;;;;;;;31.42;10.23;;;24.40;97.20;;;;;;1714162;28;20206;-70
2023/06/02 08:49:19;;;;;;;40.13;11.33;;;24.50;97.20;;;;;;1714031;28;20202;-70
2023/06/02 08:50:10;;;;;;;27.10;8.68;;;24.50;97.20;;;;;;1713990;28;20472;-69
2023/06/02 08:51:04;;;;;;;14.27;8.10;;;24.50;97.20;;;;;;1714094;28;20202;-70
2023/06/02 08:52:00;;;;;;;27.38;9.80;;;24.50;97.20;;;;;;1713947;28;20202;-70
2023/06/02 08:52:55;;;;;;;154.95;19.08;;;24.60;97.20;;;;;;1714218;28;20213;-69
2023/06/02 08:53:47;;;;;;;56.03;12.90;;;24.60;97.20;;;;;;1714044;28;20216;-71
2023/06/02 08:54:40;;;;;;;29.10;8.95;;;24.70;97.20;;;;;;1713823;28;20453;-70
2023/06/02 08:55:32;;;;;;;20.17;7.73;;;24.70;97.20;;;;;;1713993;28;20251;-70
2023/06/02 08:56:24;;;;;;;69.60;11.70;;;24.70;97.20;;;;;;1714070;28;20469;-70
2023/06/02 08:57:16;;;;;;;97.07;15.00;;;24.80;97.20;;;;;;1713276;28;20665;-70
2023/06/02 08:58:09;;;;;;;48.10;10.85;;;24.80;97.20;;;;;;1713884;28;20252;-71
2023/06/02 08:59:00;;;;;;;49.90;10.53;;;24.90;97.20;;;;;;1713955;28;20206;-70
2023/06/02 08:59:52;;;;;;;28.27;9.20;;;24.90;97.20;;;;;;1713964;28;20445;-70
2023/06/02 09:00:43;;;;;;;13.33;7.53;;;25.00;97.20;;;;;;1713922;28;20236;-70
2023/06/02 09:01:35;;;;;;;178.93;19.53;;;25.00;97.20;;;;;;1713935;28;20449;-70
2023/06/02 09:02:25;;;;;;;72.30;12.30;;;25.10;97.20;;;;;;1713904;28;20449;-70
2023/06/02 09:03:17;;;;;;;50.73;10.20;;;25.10;97.20;;;;;;1714012;28;20233;-70
2023/06/02 09:04:08;;;;;;;38.53;9.85;;;25.20;97.20;;;;;;1713995;28;20202;-70
2023/06/02 09:04:59;;;;;;;23.97;9.80;;;25.20;97.20;;;;;;1713950;28;20202;-71
2023/06/02 09:05:50;;;;;;;20.80;7.88;;;25.20;97.20;;;;;;1713963;28;20256;-70
2023/06/02 09:06:43;;;;;;;14.73;7.30;;;25.30;97.20;;;;;;1713970;28;20206;-70
2023/06/02 09:07:34;;;;;;;25.60;8.38;;;25.30;97.20;;;;;;1713767;28;20209;-69
2023/06/02 09:08:29;;;;;;;18.90;8.27;;;25.30;97.20;;;;;;1713878;28;20194;-70
2023/06/02 09:09:20;;;;;;;20.63;7.80;;;25.30;97.20;;;;;;1713980;28;20210;-69
2023/06/02 09:10:11;;;;;;;17.97;7.80;;;25.30;97.20;;;;;;1713952;28;20441;-69
2023/06/02 09:11:13;;;;;;;17.77;7.95;;;25.40;97.20;;;;;;1713657;28;20206;-70
2023/06/02 09:12:05;;;;;;;15.27;7.70;;;25.40;97.20;;;;;;1713917;28;20198;-70
2023/06/02 09:12:56;;;;;;;61.93;11.80;;;25.50;97.20;;;;;;1714018;28;20667;-69
2023/06/02 09:13:47;;;;;;;16.07;7.80;;;25.50;97.20;;;;;;1713923;28;20966;-69
2023/06/02 09:14:39;;;;;;;17.35;8.40;;;25.60;97.20;;;;;;1713928;28;20452;-70
2023/06/02 09:15:31;;;;;;;49.95;11.45;;;25.60;97.20;;;;;;1713944;28;20658;-70
2023/06/02 09:16:22;;;;;;;16.00;8.40;;;25.60;97.20;;;;;;1713940;28;20212;-70
2023/06/02 09:17:29;;;;;;;24.83;9.27;;;25.70;97.20;;;;;;1713644;28;20561;-70
2023/06/02 09:18:20;;;;;;;23.48;8.52;;;25.70;97.20;;;;;;1713907;28;20461;-70
2023/06/02 09:19:11;;;;;;;29.63;9.20;;;25.70;97.20;;;;;;1714335;28;20198;-70
2023/06/02 09:20:10;;;;;;;16.30;8.47;;;25.70;97.20;;;;;;1714300;28;20323;-70
2023/06/02 09:21:02;;;;;;;8.52;7.13;;;25.80;97.20;;;;;;1707456;29;20502;-69
2023/06/02 09:22:03;;;;;;;8.47;7.67;;;25.80;97.20;;;;;;1707316;29;20201;-70
2023/06/02 09:22:56;;;;;;;8.20;6.63;;;25.80;97.20;;;;;;1707512;29;20450;-70
2023/06/02 09:23:48;;;;;;;12.35;7.32;;;25.80;97.20;;;;;;1707557;29;20238;-69
2023/06/02 09:24:40;;;;;;;8.70;7.30;;;25.80;97.20;;;;;;1707660;28;20214;-70
2023/06/02 09:25:31;;;;;;;32.75;10.43;;;25.80;97.20;;;;;;1707661;29;20482;-70
2023/06/02 09:26:25;;;;;;;16.45;7.90;;;25.80;97.20;;;;;;1707308;29;20202;-70